createdAt,value
2023-02-14T00:02:38.689Z,5.44
2023-02-14T00:05:45.590Z,5.44
2023-02-14T00:08:54.363Z,5.47
2023-02-14T00:12:01.166Z,5.58
2023-02-14T00:15:20.105Z,5.58
2023-02-14T00:18:50.180Z,5.60
2023-02-14T00:21:56.588Z,5.63
2023-02-14T00:25:03.943Z,5.70
2023-02-14T00:28:09.801Z,5.72
2023-02-14T00:31:16.482Z,5.67
2023-02-14T00:34:25.633Z,5.62
2023-02-14T00:37:32.461Z,5.61
2023-02-14T00:40:38.198Z,5.63
2023-02-14T00:43:44.757Z,5.70
2023-02-14T00:46:50.642Z,5.71
2023-02-14T00:50:03.012Z,5.70
2023-02-14T00:53:08.866Z,5.75
2023-02-14T00:56:16.439Z,5.68
2023-02-14T00:59:22.422Z,5.62
2023-02-14T01:02:29.053Z,5.57
2023-02-14T01:05:37.501Z,5.60
2023-02-14T01:08:44.449Z,5.63
2023-02-14T01:11:50.227Z,5.70
2023-02-14T01:14:57.024Z,5.68
2023-02-14T01:18:03.622Z,5.75
2023-02-14T01:21:20.952Z,5.78
2023-02-14T01:24:27.707Z,5.82
2023-02-14T01:27:34.333Z,5.85
2023-02-14T01:30:40.254Z,5.87
2023-02-14T01:33:51.990Z,5.84
2023-02-14T01:37:00.421Z,5.82
2023-02-14T01:40:08.807Z,5.80
2023-02-14T01:43:21.902Z,5.78
2023-02-14T01:46:30.795Z,5.67
2023-02-14T01:49:44.108Z,5.50
2023-02-14T01:53:00.798Z,5.41
2023-02-14T01:56:15.678Z,5.40
2023-02-14T01:59:29.463Z,5.40
2023-02-14T02:02:35.262Z,5.37
2023-02-14T02:05:51.402Z,5.38
2023-02-14T02:09:15.252Z,5.38
2023-02-14T02:12:22.292Z,5.34
2023-02-14T02:15:34.305Z,5.26
2023-02-14T02:19:11.368Z,5.22
2023-02-14T02:23:10.332Z,5.17
2023-02-14T02:27:11.547Z,5.13
2023-02-14T02:31:10.832Z,5.16
2023-02-14T02:35:15.192Z,5.10
2023-02-14T02:38:50.104Z,5.12
2023-02-14T02:42:17.872Z,5.13
2023-02-14T02:46:05.067Z,5.13
2023-02-14T02:49:38.941Z,5.12
2023-02-14T02:53:06.459Z,5.07
2023-02-14T02:56:37.812Z,5.06
2023-02-14T02:59:48.941Z,5.11
2023-02-14T03:03:13.344Z,5.09
2023-02-14T03:06:19.125Z,5.10
2023-02-14T03:10:00.433Z,5.17
2023-02-14T03:13:34.602Z,5.18
2023-02-14T03:17:07.908Z,5.23
2023-02-14T03:20:26.240Z,5.25
2023-02-14T03:23:41.936Z,5.22
2023-02-14T03:27:00.168Z,5.26
2023-02-14T03:30:21.373Z,5.26
2023-02-14T03:33:42.113Z,5.18
2023-02-14T03:36:59.326Z,5.13
2023-02-14T03:40:14.017Z,5.13
2023-02-14T03:43:33.826Z,5.14
2023-02-14T03:46:48.718Z,5.14
2023-02-14T03:50:05.248Z,5.01
2023-02-14T03:53:16.263Z,5.07
2023-02-14T03:56:35.344Z,5.17
2023-02-14T03:59:45.885Z,5.27
2023-02-14T04:03:02.947Z,5.37
2023-02-14T04:06:09.580Z,5.37
2023-02-14T04:09:16.401Z,5.38
2023-02-14T04:12:35.941Z,5.37
2023-02-14T04:15:46.980Z,5.38
2023-02-14T04:19:04.992Z,5.44
2023-02-14T04:22:11.564Z,5.50
2023-02-14T04:25:17.905Z,5.59
2023-02-14T04:28:24.583Z,5.63
2023-02-14T04:31:33.260Z,5.67
2023-02-14T04:34:41.027Z,5.71
2023-02-14T04:37:46.859Z,5.77
2023-02-14T04:40:54.145Z,5.66
2023-02-14T04:43:59.918Z,5.71
2023-02-14T04:47:10.607Z,5.67
2023-02-14T04:50:17.624Z,5.69
2023-02-14T04:53:24.659Z,5.68
2023-02-14T04:56:30.595Z,5.70
2023-02-14T04:59:37.478Z,5.75
2023-02-14T05:02:45.816Z,5.79
2023-02-14T05:05:52.489Z,5.74
2023-02-14T05:08:58.600Z,5.70
2023-02-14T05:12:05.377Z,5.64
2023-02-14T05:15:12.703Z,5.53
2023-02-14T05:18:21.999Z,5.48
2023-02-14T05:21:28.651Z,5.39
2023-02-14T05:24:35.332Z,5.34
2023-02-14T05:27:41.133Z,5.23
2023-02-14T05:30:50.139Z,5.09
2023-02-14T05:33:58.546Z,5.12
2023-02-14T05:37:05.371Z,5.04
2023-02-14T05:40:14.065Z,4.96
2023-02-14T05:43:20.612Z,4.88
2023-02-14T05:46:26.351Z,4.85
2023-02-14T05:49:35.486Z,4.75
2023-02-14T05:52:41.690Z,4.72
2023-02-14T05:55:48.312Z,4.73
2023-02-14T05:58:54.036Z,4.66
2023-02-14T06:02:00.625Z,4.64
2023-02-14T06:05:11.853Z,4.64
2023-02-14T06:08:18.489Z,4.65
2023-02-14T06:11:24.309Z,4.64
2023-02-14T06:14:30.931Z,4.66
2023-02-14T06:17:36.809Z,4.70
2023-02-14T06:20:46.040Z,4.66
2023-02-14T06:23:51.826Z,4.68
2023-02-14T06:26:58.386Z,4.68
2023-02-14T06:30:04.830Z,4.68
2023-02-14T06:33:11.560Z,4.70
2023-02-14T06:36:20.398Z,4.61
2023-02-14T06:39:27.192Z,4.73
2023-02-14T06:42:32.973Z,4.75
2023-02-14T06:45:39.586Z,4.79
2023-02-14T06:48:45.806Z,4.84
2023-02-14T06:51:55.121Z,4.88
2023-02-14T06:55:00.962Z,4.94
2023-02-14T06:58:07.849Z,4.94
2023-02-14T07:01:13.755Z,4.89
2023-02-14T07:04:20.725Z,4.94
2023-02-14T07:07:29.266Z,4.94
2023-02-14T07:10:36.014Z,4.83
2023-02-14T07:13:41.841Z,4.93
2023-02-14T07:16:48.538Z,4.84
2023-02-14T07:19:54.269Z,4.90
2023-02-14T07:23:04.721Z,4.90
2023-02-14T07:26:10.814Z,4.94
2023-02-14T07:29:18.671Z,4.89
2023-02-14T07:32:25.911Z,4.95
2023-02-14T07:35:33.239Z,4.90
2023-02-14T07:38:41.722Z,4.90
2023-02-14T07:41:48.330Z,4.96
2023-02-14T07:44:57.712Z,4.98
2023-02-14T07:48:04.796Z,5.01
2023-02-14T07:51:11.355Z,5.05
2023-02-14T07:54:21.226Z,5.04
2023-02-14T08:00:48.290Z,5.16
2023-02-14T08:03:54.540Z,5.15
2023-02-14T08:07:01.195Z,5.15
2023-02-14T08:10:12.990Z,5.18
2023-02-14T08:13:19.926Z,5.23
2023-02-14T08:16:25.856Z,5.25
2023-02-14T08:19:33.504Z,5.30
2023-02-14T08:22:39.336Z,5.35
2023-02-14T08:25:48.708Z,5.39
2023-02-14T08:28:54.628Z,5.45
2023-02-14T08:32:01.937Z,5.52
2023-02-14T08:35:08.152Z,5.50
2023-02-14T08:38:15.039Z,5.52
2023-02-14T08:41:23.530Z,5.58
2023-02-14T08:44:30.407Z,5.63
2023-02-14T08:47:38.656Z,5.72
2023-02-14T08:50:45.897Z,5.82
2023-02-14T08:53:57.052Z,5.80
2023-02-14T08:57:06.861Z,5.79
2023-02-14T09:00:15.359Z,5.78
2023-02-14T09:03:22.787Z,5.83
2023-02-14T09:06:29.849Z,5.92
2023-02-14T09:09:37.543Z,5.90
2023-02-14T09:12:46.265Z,6.08
2023-02-14T09:15:55.441Z,6.18
2023-02-14T09:19:01.409Z,6.25
2023-02-14T09:22:11.216Z,6.23
2023-02-14T09:25:16.998Z,6.32
2023-02-14T09:28:26.159Z,6.39
2023-02-14T09:31:31.995Z,6.38
2023-02-14T09:34:39.380Z,6.36
2023-02-14T09:37:45.107Z,6.43
2023-02-14T09:40:54.725Z,6.47
2023-02-14T09:44:10.218Z,6.57
2023-02-14T09:47:31.998Z,6.67
2023-02-14T09:50:48.924Z,6.72
2023-02-14T09:54:07.121Z,6.66
2023-02-14T09:57:30.727Z,6.46
2023-02-14T10:00:51.831Z,6.34
2023-02-14T10:04:28.639Z,6.51
2023-02-14T10:07:53.281Z,6.66
2023-02-14T10:11:11.685Z,6.75
2023-02-14T10:14:26.230Z,6.95
2023-02-14T10:17:47.165Z,7.05
2023-02-14T10:21:00.772Z,7.22
2023-02-14T10:24:21.050Z,7.35
2023-02-14T10:27:39.771Z,7.23
2023-02-14T10:31:01.670Z,7.10
2023-02-14T10:34:25.464Z,7.06
2023-02-14T10:38:01.022Z,7.16
2023-02-14T10:41:30.177Z,7.18
2023-02-14T10:44:57.276Z,7.17
2023-02-14T10:48:23.295Z,7.23
2023-02-14T10:51:46.923Z,7.22
2023-02-14T10:55:00.108Z,7.35
2023-02-14T10:58:13.019Z,7.34
2023-02-14T11:01:22.606Z,7.37
2023-02-14T11:04:29.143Z,7.44
2023-02-14T11:07:39.845Z,7.51
2023-02-14T11:10:46.138Z,7.41
2023-02-14T11:13:53.656Z,7.55
2023-02-14T11:17:01.937Z,7.43
2023-02-14T11:20:30.668Z,7.32
2023-02-14T11:23:44.104Z,7.29
2023-02-14T11:26:55.732Z,7.23
2023-02-14T11:30:03.264Z,7.07
2023-02-14T11:33:15.732Z,7.48
2023-02-14T11:36:21.808Z,7.55
2023-02-14T11:39:37.106Z,7.47
2023-02-14T11:42:51.646Z,7.64
2023-02-14T11:46:19.190Z,7.71
2023-02-14T11:49:35.050Z,7.92
2023-02-14T11:52:54.992Z,8.02
2023-02-14T11:56:03.914Z,8.02
2023-02-14T11:59:23.574Z,7.95
2023-02-14T12:02:43.562Z,8.04
2023-02-14T12:05:57.429Z,8.08
2023-02-14T12:09:16.249Z,7.93
2023-02-14T12:12:29.160Z,7.72
2023-02-14T12:15:40.893Z,7.60
2023-02-14T12:19:02.501Z,7.65
2023-02-14T12:22:10.345Z,7.58
2023-02-14T12:25:25.698Z,7.56
2023-02-14T12:28:46.068Z,7.61
2023-02-14T12:31:53.501Z,7.64
2023-02-14T12:35:16.276Z,7.56
2023-02-14T12:38:44.787Z,7.66
2023-02-14T12:42:07.954Z,7.72
2023-02-14T12:45:30.276Z,7.60
2023-02-14T12:49:03.278Z,7.53
2023-02-14T12:52:41.389Z,7.31
2023-02-14T12:56:06.712Z,7.15
2023-02-14T12:59:35.304Z,7.05
2023-02-14T13:03:44.202Z,7.02
2023-02-14T13:07:00.490Z,7.15
2023-02-14T13:10:30.155Z,7.10
2023-02-14T13:14:04.565Z,7.06
2023-02-14T13:17:27.418Z,7.15
2023-02-14T13:20:52.454Z,7.12
2023-02-14T13:24:14.099Z,7.33
2023-02-14T13:27:30.391Z,7.42
2023-02-14T13:30:42.258Z,7.50
2023-02-14T13:33:55.600Z,7.65
2023-02-14T13:37:12.554Z,7.66
2023-02-14T13:40:26.762Z,7.55
2023-02-14T13:43:53.131Z,7.25
2023-02-14T13:47:00.054Z,7.02
2023-02-14T13:50:09.480Z,7.05
2023-02-14T13:53:41.896Z,7.02
2023-02-14T13:56:47.768Z,7.07
2023-02-14T14:00:38.316Z,7.23
2023-02-14T14:04:01.957Z,7.32
2023-02-14T14:07:30.180Z,7.40
2023-02-14T14:10:51.853Z,7.45
2023-02-14T14:14:01.972Z,7.50
2023-02-14T14:17:28.388Z,7.42
2023-02-14T14:20:52.667Z,7.41
2023-02-14T14:24:28.284Z,7.37
2023-02-14T14:27:44.956Z,7.40
2023-02-14T14:30:51.895Z,7.46
2023-02-14T14:34:04.287Z,7.42
2023-02-14T14:37:21.353Z,7.39
2023-02-14T14:40:32.188Z,7.33
2023-02-14T14:43:43.856Z,7.23
2023-02-14T14:46:53.931Z,7.16
2023-02-14T14:50:10.864Z,7.10
2023-02-14T14:53:29.406Z,7.00
2023-02-14T14:56:42.362Z,7.03
2023-02-14T14:59:52.219Z,6.97
2023-02-14T15:03:09.761Z,6.96
2023-02-14T15:06:23.137Z,6.79
2023-02-14T15:09:36.384Z,6.75
2023-02-14T15:12:56.542Z,6.65
2023-02-14T15:16:05.778Z,6.87
2023-02-14T15:19:22.567Z,6.79
2023-02-14T15:22:34.000Z,6.94
2023-02-14T15:25:44.759Z,6.90
2023-02-14T15:29:01.306Z,6.88
2023-02-14T15:32:15.439Z,6.95
2023-02-14T15:35:32.104Z,6.94
2023-02-14T15:38:45.206Z,6.83
2023-02-14T15:41:51.154Z,6.77
2023-02-14T15:45:25.604Z,6.79
2023-02-14T15:48:38.016Z,6.82
2023-02-14T15:51:50.533Z,6.82
2023-02-14T15:54:56.454Z,6.86
2023-02-14T15:58:09.894Z,6.82
2023-02-14T16:01:16.929Z,7.02
2023-02-14T16:04:33.277Z,7.06
2023-02-14T16:07:39.203Z,7.01
2023-02-14T16:10:46.270Z,6.98
2023-02-14T16:13:52.084Z,6.98
2023-02-14T16:17:04.822Z,6.91
2023-02-14T16:20:45.472Z,6.68
2023-02-14T16:24:16.018Z,6.50
2023-02-14T16:27:21.863Z,6.62
2023-02-14T16:30:28.927Z,6.58
2023-02-14T16:33:40.111Z,6.63
2023-02-14T16:36:49.656Z,6.65
2023-02-14T16:39:59.567Z,6.67
2023-02-14T16:43:09.507Z,6.55
2023-02-14T16:46:17.709Z,6.74
2023-02-14T16:49:25.591Z,6.80
2023-02-14T16:52:34.486Z,6.96
2023-02-14T16:55:42.701Z,7.08
2023-02-14T16:58:50.380Z,7.13
2023-02-14T17:02:02.872Z,7.13
2023-02-14T17:05:10.131Z,7.09
2023-02-14T17:08:20.720Z,6.99
2023-02-14T17:11:31.080Z,7.11
2023-02-14T17:14:42.729Z,7.17
2023-02-14T17:17:52.204Z,7.17
2023-02-14T17:20:59.435Z,7.20
2023-02-14T17:24:08.819Z,7.13
2023-02-14T17:27:15.564Z,7.05
2023-02-14T17:30:23.343Z,7.09
2023-02-14T17:33:30.693Z,6.90
2023-02-14T17:36:36.887Z,7.10
2023-02-14T17:39:46.268Z,7.08
2023-02-14T17:42:52.206Z,7.04
2023-02-14T17:45:58.880Z,7.02
2023-02-14T17:49:05.480Z,7.07
2023-02-14T17:52:12.322Z,7.15
2023-02-14T17:55:21.041Z,7.15
2023-02-14T17:58:27.754Z,7.15
2023-02-14T18:01:36.375Z,7.16
2023-02-14T18:04:43.205Z,7.14
2023-02-14T18:07:48.960Z,7.06
2023-02-14T18:10:58.977Z,6.96
2023-02-14T18:14:04.980Z,7.00
2023-02-14T18:17:11.848Z,6.84
2023-02-14T18:20:17.687Z,6.95
2023-02-14T18:23:25.003Z,6.94
2023-02-14T18:26:34.683Z,6.87
2023-02-14T18:29:41.608Z,7.01
2023-02-14T18:32:47.995Z,6.97
2023-02-14T18:35:54.564Z,6.92
2023-02-14T18:39:01.185Z,6.93
2023-02-14T18:42:10.468Z,6.89
2023-02-14T18:45:16.405Z,6.92
2023-02-14T18:48:23.146Z,6.90
2023-02-14T18:51:33.502Z,6.92
2023-02-14T18:54:40.539Z,6.97
2023-02-14T18:57:49.052Z,7.01
2023-02-14T19:00:56.679Z,7.00
2023-02-14T19:04:06.206Z,7.06
2023-02-14T19:07:15.715Z,7.00
2023-02-14T19:10:22.070Z,6.86
2023-02-14T19:13:32.483Z,6.81
2023-02-14T19:16:51.263Z,6.85
2023-02-14T19:20:00.097Z,6.92
2023-02-14T19:23:06.668Z,6.98
2023-02-14T19:26:15.169Z,6.99
2023-02-14T19:29:27.455Z,6.94
2023-02-14T19:32:34.105Z,6.97
2023-02-14T19:35:40.393Z,7.00
2023-02-14T19:38:51.351Z,7.03
2023-02-14T19:41:57.151Z,7.06
2023-02-14T19:45:09.950Z,7.08
2023-02-14T19:48:15.928Z,7.10
2023-02-14T19:51:29.073Z,7.13
2023-02-14T19:54:34.995Z,7.15
2023-02-14T19:57:42.493Z,7.20
2023-02-14T20:00:59.629Z,7.21
2023-02-14T20:04:10.332Z,7.22
2023-02-14T20:07:16.893Z,7.18
2023-02-14T20:10:24.003Z,7.20
2023-02-14T20:13:31.384Z,7.19
2023-02-14T20:16:41.688Z,7.11
2023-02-14T20:19:47.585Z,7.13
2023-02-14T20:22:54.139Z,7.14
2023-02-14T20:26:02.923Z,7.09
2023-02-14T20:29:12.828Z,7.05
2023-02-14T20:32:22.018Z,6.90
2023-02-14T20:35:31.774Z,6.85
2023-02-14T20:38:38.541Z,6.83
2023-02-14T20:41:50.210Z,6.78
2023-02-14T20:44:56.200Z,6.84
2023-02-14T20:48:07.262Z,6.87
2023-02-14T20:51:14.994Z,6.87
2023-02-14T20:54:24.723Z,6.88
2023-02-14T20:57:32.420Z,6.90
2023-02-14T21:00:39.470Z,6.94
2023-02-14T21:03:51.228Z,6.87
2023-02-14T21:07:00.399Z,6.76
2023-02-14T21:10:07.417Z,6.88
2023-02-14T21:13:14.155Z,6.78
2023-02-14T21:16:22.850Z,6.77
2023-02-14T21:19:31.996Z,6.67
2023-02-14T21:22:37.942Z,6.59
2023-02-14T21:25:45.084Z,6.53
2023-02-14T21:29:01.141Z,6.66
2023-02-14T21:32:10.418Z,6.60
2023-02-14T21:35:19.345Z,6.59
2023-02-14T21:38:26.507Z,6.64
2023-02-14T21:41:34.696Z,6.64
2023-02-14T21:44:54.366Z,6.70
2023-02-14T21:48:12.540Z,6.76
2023-02-14T21:51:23.115Z,6.77
2023-02-14T21:54:29.037Z,6.78
2023-02-14T21:57:35.878Z,6.77
2023-02-14T22:00:48.260Z,6.77
2023-02-14T22:03:57.028Z,6.77
2023-02-14T22:07:05.564Z,6.79
2023-02-14T22:10:13.972Z,6.71
2023-02-14T22:13:19.775Z,6.65
2023-02-14T22:16:28.546Z,6.65
2023-02-14T22:19:36.930Z,6.73
2023-02-14T22:22:47.363Z,6.70
2023-02-14T22:25:57.525Z,6.71
2023-02-14T22:29:06.137Z,6.63
2023-02-14T22:32:12.054Z,6.68
2023-02-14T22:35:19.166Z,6.67
2023-02-14T22:38:28.258Z,6.64
2023-02-14T22:41:37.880Z,6.67
2023-02-14T22:44:43.908Z,6.70
2023-02-14T22:47:50.533Z,6.62
2023-02-14T22:50:56.266Z,6.57
2023-02-14T22:54:08.631Z,6.36
2023-02-14T22:57:17.032Z,5.97
2023-02-14T23:00:25.051Z,5.97
2023-02-14T23:03:31.099Z,6.13
2023-02-14T23:06:40.286Z,6.20
2023-02-14T23:09:48.672Z,6.27
2023-02-14T23:13:07.816Z,6.37
2023-02-14T23:16:25.962Z,6.36
2023-02-14T23:19:49.327Z,6.40
2023-02-14T23:22:54.999Z,6.32
2023-02-14T23:26:04.334Z,6.22
2023-02-14T23:29:10.108Z,6.16
2023-02-14T23:32:17.619Z,6.14
2023-02-14T23:35:23.399Z,6.13
2023-02-14T23:38:29.974Z,6.17
2023-02-14T23:41:50.373Z,6.20
2023-02-14T23:45:17.004Z,6.03
2023-02-14T23:48:22.798Z,5.98
2023-02-14T23:51:29.367Z,5.94
2023-02-14T23:54:35.842Z,5.91
2023-02-14T23:57:44.959Z,5.94
